sensor_id;sensor_type;location;lat;lon;timestamp;temperature;humidity
3921;DHT22;1975;49.356;6.816;2023-04-25T00:01:10;10.90;99.90
3921;DHT22;1975;49.356;6.816;2023-04-25T00:03:38;10.90;99.90
3921;DHT22;1975;49.356;6.816;2023-04-25T00:06:04;10.90;99.90
3921;DHT22;1975;49.356;6.816;2023-04-25T00:08:29;10.90;99.90
3921;DHT22;1975;49.356;6.816;2023-04-25T00:10:56;10.80;99.90
3921;DHT22;1975;49.356;6.816;2023-04-25T00:13:21;10.90;99.90
3921;DHT22;1975;49.356;6.816;2023-04-25T00:15:47;10.80;99.90
3921;DHT22;1975;49.356;6.816;2023-04-25T00:18:13;10.80;99.90
3921;DHT22;1975;49.356;6.816;2023-04-25T00:20:39;10.80;99.90
3921;DHT22;1975;49.356;6.816;2023-04-25T00:23:04;10.80;99.90
3921;DHT22;1975;49.356;6.816;2023-04-25T00:25:30;10.80;99.90
3921;DHT22;1975;49.356;6.816;2023-04-25T00:27:55;10.80;99.90
3921;DHT22;1975;49.356;6.816;2023-04-25T00:30:21;10.80;99.90
3921;DHT22;1975;49.356;6.816;2023-04-25T00:32:46;10.80;99.90
3921;DHT22;1975;49.356;6.816;2023-04-25T00:35:12;10.80;99.90
3921;DHT22;1975;49.356;6.816;2023-04-25T00:37:37;10.80;99.90
3921;DHT22;1975;49.356;6.816;2023-04-25T00:40:04;10.80;99.90
3921;DHT22;1975;49.356;6.816;2023-04-25T00:42:31;10.80;99.90
3921;DHT22;1975;49.356;6.816;2023-04-25T00:44:58;10.80;99.90
3921;DHT22;1975;49.356;6.816;2023-04-25T00:47:23;10.80;99.90
3921;DHT22;1975;49.356;6.816;2023-04-25T00:49:49;10.80;99.90
3921;DHT22;1975;49.356;6.816;2023-04-25T00:52:14;10.80;99.90
3921;DHT22;1975;49.356;6.816;2023-04-25T00:54:40;10.80;99.90
3921;DHT22;1975;49.356;6.816;2023-04-25T00:57:05;10.80;99.90
3921;DHT22;1975;49.356;6.816;2023-04-25T00:59:31;10.70;99.90
3921;DHT22;1975;49.356;6.816;2023-04-25T01:01:56;10.70;99.90
3921;DHT22;1975;49.356;6.816;2023-04-25T01:04:22;10.70;99.90
3921;DHT22;1975;49.356;6.816;2023-04-25T01:06:47;10.70;99.90
3921;DHT22;1975;49.356;6.816;2023-04-25T01:09:13;10.70;99.90
3921;DHT22;1975;49.356;6.816;2023-04-25T01:11:38;10.70;99.90
3921;DHT22;1975;49.356;6.816;2023-04-25T01:14:05;10.70;99.90
3921;DHT22;1975;49.356;6.816;2023-04-25T01:16:32;10.70;99.90
3921;DHT22;1975;49.356;6.816;2023-04-25T01:18:58;10.70;99.90
3921;DHT22;1975;49.356;6.816;2023-04-25T01:21:24;10.70;99.90
3921;DHT22;1975;49.356;6.816;2023-04-25T01:23:52;10.70;99.90
3921;DHT22;1975;49.356;6.816;2023-04-25T01:26:17;10.70;99.90
3921;DHT22;1975;49.356;6.816;2023-04-25T01:28:43;10.70;99.90
3921;DHT22;1975;49.356;6.816;2023-04-25T01:31:09;10.60;99.90
3921;DHT22;1975;49.356;6.816;2023-04-25T01:33:34;10.60;99.90
3921;DHT22;1975;49.356;6.816;2023-04-25T01:36:00;10.60;99.90
3921;DHT22;1975;49.356;6.816;2023-04-25T01:38:25;10.60;99.90
3921;DHT22;1975;49.356;6.816;2023-04-25T01:40:51;10.60;99.90
3921;DHT22;1975;49.356;6.816;2023-04-25T01:43:17;10.60;99.90
3921;DHT22;1975;49.356;6.816;2023-04-25T01:45:42;10.60;99.90
3921;DHT22;1975;49.356;6.816;2023-04-25T01:48:08;10.60;99.90
3921;DHT22;1975;49.356;6.816;2023-04-25T01:50:34;10.60;99.90
3921;DHT22;1975;49.356;6.816;2023-04-25T01:53:00;10.60;99.90
3921;DHT22;1975;49.356;6.816;2023-04-25T01:55:27;10.60;99.90
3921;DHT22;1975;49.356;6.816;2023-04-25T01:57:52;10.60;99.90
3921;DHT22;1975;49.356;6.816;2023-04-25T02:00:18;10.60;99.90
3921;DHT22;1975;49.356;6.816;2023-04-25T02:02:43;10.60;99.90
3921;DHT22;1975;49.356;6.816;2023-04-25T02:05:09;10.60;99.90
3921;DHT22;1975;49.356;6.816;2023-04-25T02:07:34;10.50;99.90
3921;DHT22;1975;49.356;6.816;2023-04-25T02:10:00;10.50;99.90
3921;DHT22;1975;49.356;6.816;2023-04-25T02:12:26;10.50;99.90
3921;DHT22;1975;49.356;6.816;2023-04-25T02:14:52;10.50;99.90
3921;DHT22;1975;49.356;6.816;2023-04-25T02:17:18;10.50;99.90
3921;DHT22;1975;49.356;6.816;2023-04-25T02:19:43;10.50;99.90
3921;DHT22;1975;49.356;6.816;2023-04-25T02:22:09;10.50;99.90
3921;DHT22;1975;49.356;6.816;2023-04-25T02:24:35;10.50;99.90
3921;DHT22;1975;49.356;6.816;2023-04-25T02:27:01;10.50;99.90
3921;DHT22;1975;49.356;6.816;2023-04-25T02:29:26;10.50;99.90
3921;DHT22;1975;49.356;6.816;2023-04-25T02:31:52;10.50;99.90
3921;DHT22;1975;49.356;6.816;2023-04-25T02:34:17;10.50;99.90
3921;DHT22;1975;49.356;6.816;2023-04-25T02:36:43;10.50;99.90
3921;DHT22;1975;49.356;6.816;2023-04-25T02:39:08;10.50;99.90
3921;DHT22;1975;49.356;6.816;2023-04-25T02:41:33;10.50;99.90
3921;DHT22;1975;49.356;6.816;2023-04-25T02:43:59;10.50;99.90
3921;DHT22;1975;49.356;6.816;2023-04-25T02:46:24;10.50;99.90
3921;DHT22;1975;49.356;6.816;2023-04-25T02:48:50;10.40;99.90
3921;DHT22;1975;49.356;6.816;2023-04-25T02:51:15;10.40;99.90
3921;DHT22;1975;49.356;6.816;2023-04-25T02:53:41;10.40;99.90
3921;DHT22;1975;49.356;6.816;2023-04-25T02:56:07;10.40;99.90
3921;DHT22;1975;49.356;6.816;2023-04-25T02:58:32;10.40;99.90
3921;DHT22;1975;49.356;6.816;2023-04-25T03:00:58;10.40;99.90
3921;DHT22;1975;49.356;6.816;2023-04-25T03:03:23;10.40;99.90
3921;DHT22;1975;49.356;6.816;2023-04-25T03:05:51;10.40;99.90
3921;DHT22;1975;49.356;6.816;2023-04-25T03:08:17;10.40;99.90
3921;DHT22;1975;49.356;6.816;2023-04-25T03:10:43;10.40;99.90
3921;DHT22;1975;49.356;6.816;2023-04-25T03:13:08;10.40;99.90
3921;DHT22;1975;49.356;6.816;2023-04-25T03:15:34;10.40;99.90
3921;DHT22;1975;49.356;6.816;2023-04-25T03:18:00;10.40;99.90
3921;DHT22;1975;49.356;6.816;2023-04-25T03:20:26;10.40;99.90
3921;DHT22;1975;49.356;6.816;2023-04-25T03:22:51;10.40;99.90
3921;DHT22;1975;49.356;6.816;2023-04-25T03:25:17;10.40;99.90
3921;DHT22;1975;49.356;6.816;2023-04-25T03:27:42;10.40;99.90
3921;DHT22;1975;49.356;6.816;2023-04-25T03:30:07;10.40;99.90
3921;DHT22;1975;49.356;6.816;2023-04-25T03:32:34;10.40;99.90
3921;DHT22;1975;49.356;6.816;2023-04-25T03:34:59;10.40;99.90
3921;DHT22;1975;49.356;6.816;2023-04-25T03:37:24;10.40;99.90
3921;DHT22;1975;49.356;6.816;2023-04-25T03:39:50;10.40;99.90
3921;DHT22;1975;49.356;6.816;2023-04-25T03:42:16;10.40;99.90
3921;DHT22;1975;49.356;6.816;2023-04-25T03:44:41;10.40;99.90
3921;DHT22;1975;49.356;6.816;2023-04-25T03:47:07;10.30;99.90
3921;DHT22;1975;49.356;6.816;2023-04-25T03:49:32;10.30;99.90
3921;DHT22;1975;49.356;6.816;2023-04-25T03:51:58;10.30;99.90
3921;DHT22;1975;49.356;6.816;2023-04-25T03:54:23;10.40;99.90
3921;DHT22;1975;49.356;6.816;2023-04-25T03:56:49;10.30;99.90
3921;DHT22;1975;49.356;6.816;2023-04-25T03:59:14;10.30;99.90
3921;DHT22;1975;49.356;6.816;2023-04-25T04:01:40;10.30;99.90
3921;DHT22;1975;49.356;6.816;2023-04-25T04:04:05;10.30;99.90
3921;DHT22;1975;49.356;6.816;2023-04-25T04:06:31;10.30;99.90
3921;DHT22;1975;49.356;6.816;2023-04-25T04:08:56;10.30;99.90
3921;DHT22;1975;49.356;6.816;2023-04-25T04:11:22;10.30;99.90
3921;DHT22;1975;49.356;6.816;2023-04-25T04:13:47;10.30;99.90
3921;DHT22;1975;49.356;6.816;2023-04-25T04:16:12;10.30;99.90
3921;DHT22;1975;49.356;6.816;2023-04-25T04:18:38;10.30;99.90
3921;DHT22;1975;49.356;6.816;2023-04-25T04:21:03;10.30;99.90
3921;DHT22;1975;49.356;6.816;2023-04-25T04:23:29;10.30;99.90
3921;DHT22;1975;49.356;6.816;2023-04-25T04:25:54;10.30;99.90
3921;DHT22;1975;49.356;6.816;2023-04-25T04:28:20;10.30;99.90
3921;DHT22;1975;49.356;6.816;2023-04-25T04:30:47;10.30;99.90
3921;DHT22;1975;49.356;6.816;2023-04-25T04:33:12;10.30;99.90
3921;DHT22;1975;49.356;6.816;2023-04-25T04:35:38;10.30;99.90
3921;DHT22;1975;49.356;6.816;2023-04-25T04:38:04;10.30;99.90
3921;DHT22;1975;49.356;6.816;2023-04-25T04:40:29;10.30;99.90
3921;DHT22;1975;49.356;6.816;2023-04-25T04:42:57;10.30;99.90
3921;DHT22;1975;49.356;6.816;2023-04-25T04:45:23;10.30;99.90
3921;DHT22;1975;49.356;6.816;2023-04-25T04:47:49;10.30;99.90
3921;DHT22;1975;49.356;6.816;2023-04-25T04:50:14;10.30;99.90
3921;DHT22;1975;49.356;6.816;2023-04-25T04:52:41;10.20;99.90
3921;DHT22;1975;49.356;6.816;2023-04-25T04:55:07;10.20;99.90
3921;DHT22;1975;49.356;6.816;2023-04-25T04:57:33;10.20;99.90
3921;DHT22;1975;49.356;6.816;2023-04-25T04:59:59;10.20;99.90
3921;DHT22;1975;49.356;6.816;2023-04-25T05:02:25;10.20;99.90
3921;DHT22;1975;49.356;6.816;2023-04-25T05:04:51;10.20;99.90
3921;DHT22;1975;49.356;6.816;2023-04-25T05:07:17;10.20;99.90
3921;DHT22;1975;49.356;6.816;2023-04-25T05:09:42;10.20;99.90
3921;DHT22;1975;49.356;6.816;2023-04-25T05:12:08;10.20;99.90
3921;DHT22;1975;49.356;6.816;2023-04-25T05:14:33;10.20;99.90
3921;DHT22;1975;49.356;6.816;2023-04-25T05:16:59;10.20;99.90
3921;DHT22;1975;49.356;6.816;2023-04-25T05:19:24;10.20;99.90
3921;DHT22;1975;49.356;6.816;2023-04-25T05:21:50;10.20;99.90
3921;DHT22;1975;49.356;6.816;2023-04-25T05:24:16;10.20;99.90
3921;DHT22;1975;49.356;6.816;2023-04-25T05:26:41;10.20;99.90
3921;DHT22;1975;49.356;6.816;2023-04-25T05:29:07;10.20;99.90
3921;DHT22;1975;49.356;6.816;2023-04-25T05:31:32;10.20;99.90
3921;DHT22;1975;49.356;6.816;2023-04-25T05:33:58;10.20;99.90
3921;DHT22;1975;49.356;6.816;2023-04-25T05:36:23;10.20;99.90
3921;DHT22;1975;49.356;6.816;2023-04-25T05:38:49;10.20;99.90
3921;DHT22;1975;49.356;6.816;2023-04-25T05:41:14;10.20;99.90
3921;DHT22;1975;49.356;6.816;2023-04-25T05:43:40;10.20;99.90
3921;DHT22;1975;49.356;6.816;2023-04-25T05:46:10;10.20;99.90
3921;DHT22;1975;49.356;6.816;2023-04-25T05:48:36;10.20;99.90
3921;DHT22;1975;49.356;6.816;2023-04-25T05:51:01;10.20;99.90
3921;DHT22;1975;49.356;6.816;2023-04-25T05:53:27;10.20;99.90
3921;DHT22;1975;49.356;6.816;2023-04-25T05:55:52;10.20;99.90
3921;DHT22;1975;49.356;6.816;2023-04-25T05:58:18;10.20;99.90
3921;DHT22;1975;49.356;6.816;2023-04-25T06:00:43;10.20;99.90
3921;DHT22;1975;49.356;6.816;2023-04-25T06:03:09;10.20;99.90
3921;DHT22;1975;49.356;6.816;2023-04-25T06:05:35;10.20;99.90
3921;DHT22;1975;49.356;6.816;2023-04-25T06:08:01;10.20;99.90
3921;DHT22;1975;49.356;6.816;2023-04-25T06:10:26;10.20;99.90
3921;DHT22;1975;49.356;6.816;2023-04-25T06:12:51;10.20;99.90
3921;DHT22;1975;49.356;6.816;2023-04-25T06:15:17;10.20;99.90
3921;DHT22;1975;49.356;6.816;2023-04-25T06:17:42;10.20;99.90
3921;DHT22;1975;49.356;6.816;2023-04-25T06:20:08;10.20;99.90
3921;DHT22;1975;49.356;6.816;2023-04-25T06:22:34;10.20;99.90
3921;DHT22;1975;49.356;6.816;2023-04-25T06:24:59;10.20;99.90
3921;DHT22;1975;49.356;6.816;2023-04-25T06:27:25;10.20;99.90
3921;DHT22;1975;49.356;6.816;2023-04-25T06:29:51;10.20;99.90
3921;DHT22;1975;49.356;6.816;2023-04-25T06:32:16;10.10;99.90
3921;DHT22;1975;49.356;6.816;2023-04-25T06:34:43;9.90;99.90
3921;DHT22;1975;49.356;6.816;2023-04-25T06:37:09;9.90;99.90
3921;DHT22;1975;49.356;6.816;2023-04-25T06:39:34;9.80;99.90
3921;DHT22;1975;49.356;6.816;2023-04-25T06:42:00;9.80;99.90
3921;DHT22;1975;49.356;6.816;2023-04-25T06:44:25;9.80;99.90
3921;DHT22;1975;49.356;6.816;2023-04-25T06:46:51;9.70;99.90
3921;DHT22;1975;49.356;6.816;2023-04-25T06:49:16;9.70;99.90
3921;DHT22;1975;49.356;6.816;2023-04-25T06:51:42;9.70;99.90
3921;DHT22;1975;49.356;6.816;2023-04-25T06:54:07;9.70;99.90
3921;DHT22;1975;49.356;6.816;2023-04-25T06:56:33;9.70;99.90
3921;DHT22;1975;49.356;6.816;2023-04-25T06:58:58;9.70;99.90
3921;DHT22;1975;49.356;6.816;2023-04-25T07:01:25;9.70;99.90
3921;DHT22;1975;49.356;6.816;2023-04-25T07:03:51;9.80;99.90
3921;DHT22;1975;49.356;6.816;2023-04-25T07:06:16;9.80;99.90
3921;DHT22;1975;49.356;6.816;2023-04-25T07:08:42;9.70;99.90
3921;DHT22;1975;49.356;6.816;2023-04-25T07:11:07;9.70;99.90
3921;DHT22;1975;49.356;6.816;2023-04-25T07:13:33;9.50;99.90
3921;DHT22;1975;49.356;6.816;2023-04-25T07:15:59;9.50;99.90
3921;DHT22;1975;49.356;6.816;2023-04-25T07:18:24;9.60;99.90
3921;DHT22;1975;49.356;6.816;2023-04-25T07:20:50;9.60;99.90
3921;DHT22;1975;49.356;6.816;2023-04-25T07:23:15;9.50;99.90
3921;DHT22;1975;49.356;6.816;2023-04-25T07:25:41;9.60;99.90
3921;DHT22;1975;49.356;6.816;2023-04-25T07:28:06;9.50;99.90
3921;DHT22;1975;49.356;6.816;2023-04-25T07:30:32;9.50;99.90
3921;DHT22;1975;49.356;6.816;2023-04-25T07:32:59;9.40;99.90
3921;DHT22;1975;49.356;6.816;2023-04-25T07:35:24;9.40;99.90
3921;DHT22;1975;49.356;6.816;2023-04-25T07:37:50;9.40;99.90
3921;DHT22;1975;49.356;6.816;2023-04-25T07:40:15;9.40;99.90
3921;DHT22;1975;49.356;6.816;2023-04-25T07:42:41;9.40;99.90
3921;DHT22;1975;49.356;6.816;2023-04-25T07:45:07;9.40;99.90
3921;DHT22;1975;49.356;6.816;2023-04-25T07:47:32;9.40;99.90
3921;DHT22;1975;49.356;6.816;2023-04-25T07:49:58;9.40;99.90
3921;DHT22;1975;49.356;6.816;2023-04-25T07:52:23;9.50;99.90
3921;DHT22;1975;49.356;6.816;2023-04-25T07:54:49;9.60;99.90
3921;DHT22;1975;49.356;6.816;2023-04-25T07:57:14;9.60;99.90
3921;DHT22;1975;49.356;6.816;2023-04-25T07:59:40;9.60;99.90
3921;DHT22;1975;49.356;6.816;2023-04-25T08:02:05;9.60;99.90
3921;DHT22;1975;49.356;6.816;2023-04-25T08:04:31;9.30;99.90
3921;DHT22;1975;49.356;6.816;2023-04-25T08:06:56;9.40;99.90
3921;DHT22;1975;49.356;6.816;2023-04-25T08:09:22;9.40;99.90
3921;DHT22;1975;49.356;6.816;2023-04-25T08:11:47;9.30;99.90
3921;DHT22;1975;49.356;6.816;2023-04-25T08:14:13;9.30;99.90
3921;DHT22;1975;49.356;6.816;2023-04-25T08:16:39;9.20;99.90
3921;DHT22;1975;49.356;6.816;2023-04-25T08:19:04;9.20;99.90
3921;DHT22;1975;49.356;6.816;2023-04-25T08:21:30;9.20;99.90
3921;DHT22;1975;49.356;6.816;2023-04-25T08:23:56;9.20;99.90
3921;DHT22;1975;49.356;6.816;2023-04-25T08:26:23;9.20;99.90
3921;DHT22;1975;49.356;6.816;2023-04-25T08:28:49;9.30;99.90
3921;DHT22;1975;49.356;6.816;2023-04-25T08:31:15;9.30;99.90
3921;DHT22;1975;49.356;6.816;2023-04-25T08:33:40;9.20;99.90
3921;DHT22;1975;49.356;6.816;2023-04-25T08:36:06;9.30;99.90
3921;DHT22;1975;49.356;6.816;2023-04-25T08:38:31;9.40;99.90
3921;DHT22;1975;49.356;6.816;2023-04-25T08:40:57;9.50;99.90
3921;DHT22;1975;49.356;6.816;2023-04-25T08:43:24;9.50;99.90
3921;DHT22;1975;49.356;6.816;2023-04-25T08:45:50;9.50;99.90
3921;DHT22;1975;49.356;6.816;2023-04-25T08:48:18;9.60;99.90
3921;DHT22;1975;49.356;6.816;2023-04-25T08:50:53;9.50;99.90
3921;DHT22;1975;49.356;6.816;2023-04-25T08:53:25;9.40;99.90
3921;DHT22;1975;49.356;6.816;2023-04-25T08:55:52;9.20;99.90
3921;DHT22;1975;49.356;6.816;2023-04-25T08:58:18;9.30;99.90
3921;DHT22;1975;49.356;6.816;2023-04-25T09:00:45;9.30;99.90
3921;DHT22;1975;49.356;6.816;2023-04-25T09:03:11;9.30;99.90
3921;DHT22;1975;49.356;6.816;2023-04-25T09:05:36;9.20;99.90
3921;DHT22;1975;49.356;6.816;2023-04-25T09:08:02;9.20;99.90
3921;DHT22;1975;49.356;6.816;2023-04-25T09:10:28;9.20;99.90
3921;DHT22;1975;49.356;6.816;2023-04-25T09:13:06;9.10;99.90
3921;DHT22;1975;49.356;6.816;2023-04-25T09:15:32;9.00;99.90
3921;DHT22;1975;49.356;6.816;2023-04-25T09:17:58;9.10;99.90
3921;DHT22;1975;49.356;6.816;2023-04-25T09:20:24;9.20;99.90
3921;DHT22;1975;49.356;6.816;2023-04-25T09:23:00;9.20;99.90
3921;DHT22;1975;49.356;6.816;2023-04-25T09:25:26;9.30;99.90
3921;DHT22;1975;49.356;6.816;2023-04-25T09:27:54;9.30;99.90
3921;DHT22;1975;49.356;6.816;2023-04-25T09:30:30;9.30;99.90
3921;DHT22;1975;49.356;6.816;2023-04-25T09:32:56;9.30;99.90
3921;DHT22;1975;49.356;6.816;2023-04-25T09:35:25;9.20;99.90
3921;DHT22;1975;49.356;6.816;2023-04-25T09:37:53;9.00;99.90
3921;DHT22;1975;49.356;6.816;2023-04-25T09:40:19;9.10;99.90
3921;DHT22;1975;49.356;6.816;2023-04-25T09:42:44;9.20;99.90
3921;DHT22;1975;49.356;6.816;2023-04-25T09:45:12;9.30;99.90
3921;DHT22;1975;49.356;6.816;2023-04-25T09:47:38;9.50;99.90
3921;DHT22;1975;49.356;6.816;2023-04-25T09:50:04;9.60;99.90
3921;DHT22;1975;49.356;6.816;2023-04-25T09:52:38;9.60;99.90
3921;DHT22;1975;49.356;6.816;2023-04-25T09:55:04;9.70;99.90
3921;DHT22;1975;49.356;6.816;2023-04-25T09:57:31;9.70;99.90
3921;DHT22;1975;49.356;6.816;2023-04-25T09:59:57;9.70;99.90
3921;DHT22;1975;49.356;6.816;2023-04-25T10:02:25;9.70;99.90
3921;DHT22;1975;49.356;6.816;2023-04-25T10:04:54;9.80;99.90
3921;DHT22;1975;49.356;6.816;2023-04-25T10:07:20;9.80;99.90
3921;DHT22;1975;49.356;6.816;2023-04-25T10:09:48;9.80;99.90
3921;DHT22;1975;49.356;6.816;2023-04-25T10:12:17;9.80;99.90
3921;DHT22;1975;49.356;6.816;2023-04-25T10:14:43;9.80;99.90
3921;DHT22;1975;49.356;6.816;2023-04-25T10:17:10;9.90;99.90
3921;DHT22;1975;49.356;6.816;2023-04-25T10:19:35;10.00;99.90
3921;DHT22;1975;49.356;6.816;2023-04-25T10:24:26;10.20;99.90
3921;DHT22;1975;49.356;6.816;2023-04-25T10:26:52;10.20;99.90
3921;DHT22;1975;49.356;6.816;2023-04-25T10:29:21;10.20;99.90
3921;DHT22;1975;49.356;6.816;2023-04-25T10:31:46;10.20;99.90
3921;DHT22;1975;49.356;6.816;2023-04-25T10:34:15;10.20;99.90
3921;DHT22;1975;49.356;6.816;2023-04-25T10:36:41;10.20;99.90
3921;DHT22;1975;49.356;6.816;2023-04-25T10:39:06;10.20;99.90
3921;DHT22;1975;49.356;6.816;2023-04-25T10:41:46;10.20;99.90
3921;DHT22;1975;49.356;6.816;2023-04-25T10:44:13;10.20;99.90
3921;DHT22;1975;49.356;6.816;2023-04-25T10:46:38;10.20;99.90
3921;DHT22;1975;49.356;6.816;2023-04-25T10:49:04;10.20;99.90
3921;DHT22;1975;49.356;6.816;2023-04-25T10:51:33;10.20;99.90
3921;DHT22;1975;49.356;6.816;2023-04-25T10:56:28;10.40;99.90
3921;DHT22;1975;49.356;6.816;2023-04-25T10:59:07;10.50;99.90
3921;DHT22;1975;49.356;6.816;2023-04-25T11:01:39;10.60;99.90
3921;DHT22;1975;49.356;6.816;2023-04-25T11:04:05;10.50;99.90
3921;DHT22;1975;49.356;6.816;2023-04-25T11:09:08;10.50;99.90
3921;DHT22;1975;49.356;6.816;2023-04-25T11:11:36;10.50;99.90
3921;DHT22;1975;49.356;6.816;2023-04-25T11:14:02;10.50;99.90
3921;DHT22;1975;49.356;6.816;2023-04-25T11:16:27;10.50;99.90
3921;DHT22;1975;49.356;6.816;2023-04-25T11:18:53;10.50;99.90
3921;DHT22;1975;49.356;6.816;2023-04-25T11:21:18;10.50;99.90
3921;DHT22;1975;49.356;6.816;2023-04-25T11:23:44;10.30;99.90
3921;DHT22;1975;49.356;6.816;2023-04-25T11:26:11;10.30;99.90
3921;DHT22;1975;49.356;6.816;2023-04-25T11:28:36;10.40;99.90
3921;DHT22;1975;49.356;6.816;2023-04-25T11:31:02;10.40;99.90
3921;DHT22;1975;49.356;6.816;2023-04-25T11:33:29;10.40;99.90
3921;DHT22;1975;49.356;6.816;2023-04-25T11:35:55;10.40;99.90
3921;DHT22;1975;49.356;6.816;2023-04-25T11:38:22;10.40;99.90
3921;DHT22;1975;49.356;6.816;2023-04-25T11:40:54;10.20;99.90
3921;DHT22;1975;49.356;6.816;2023-04-25T11:43:20;10.20;99.90
3921;DHT22;1975;49.356;6.816;2023-04-25T11:45:46;10.20;99.90
3921;DHT22;1975;49.356;6.816;2023-04-25T11:48:12;10.20;99.90
3921;DHT22;1975;49.356;6.816;2023-04-25T11:50:38;10.30;99.90
3921;DHT22;1975;49.356;6.816;2023-04-25T11:53:04;10.30;99.90
3921;DHT22;1975;49.356;6.816;2023-04-25T11:55:29;10.20;99.90
3921;DHT22;1975;49.356;6.816;2023-04-25T11:57:55;10.20;99.90
3921;DHT22;1975;49.356;6.816;2023-04-25T12:00:21;10.20;99.90
3921;DHT22;1975;49.356;6.816;2023-04-25T12:02:50;10.30;99.90
3921;DHT22;1975;49.356;6.816;2023-04-25T12:05:16;10.30;99.90
3921;DHT22;1975;49.356;6.816;2023-04-25T12:07:42;10.20;99.90
3921;DHT22;1975;49.356;6.816;2023-04-25T12:10:08;10.20;99.90
3921;DHT22;1975;49.356;6.816;2023-04-25T12:12:34;10.20;99.90
3921;DHT22;1975;49.356;6.816;2023-04-25T12:15:10;10.20;99.90
3921;DHT22;1975;49.356;6.816;2023-04-25T12:17:37;10.30;99.90
3921;DHT22;1975;49.356;6.816;2023-04-25T12:20:07;10.30;99.90
3921;DHT22;1975;49.356;6.816;2023-04-25T12:22:33;10.30;99.90
3921;DHT22;1975;49.356;6.816;2023-04-25T12:24:59;10.20;99.90
3921;DHT22;1975;49.356;6.816;2023-04-25T12:27:25;10.20;99.90
3921;DHT22;1975;49.356;6.816;2023-04-25T12:29:54;10.20;99.90
3921;DHT22;1975;49.356;6.816;2023-04-25T12:32:20;10.30;99.90
3921;DHT22;1975;49.356;6.816;2023-04-25T12:34:46;10.40;99.90
3921;DHT22;1975;49.356;6.816;2023-04-25T12:37:12;10.50;99.90
3921;DHT22;1975;49.356;6.816;2023-04-25T12:39:38;10.50;99.90
3921;DHT22;1975;49.356;6.816;2023-04-25T12:42:03;10.50;99.90
3921;DHT22;1975;49.356;6.816;2023-04-25T12:44:29;10.50;99.90
3921;DHT22;1975;49.356;6.816;2023-04-25T12:46:54;10.40;99.90
3921;DHT22;1975;49.356;6.816;2023-04-25T12:49:20;10.40;99.90
3921;DHT22;1975;49.356;6.816;2023-04-25T12:51:45;10.50;99.90
3921;DHT22;1975;49.356;6.816;2023-04-25T12:54:11;10.90;99.90
3921;DHT22;1975;49.356;6.816;2023-04-25T12:56:37;11.00;99.90
3921;DHT22;1975;49.356;6.816;2023-04-25T12:59:02;10.80;99.90
3921;DHT22;1975;49.356;6.816;2023-04-25T13:01:28;10.60;99.90
3921;DHT22;1975;49.356;6.816;2023-04-25T13:03:54;10.40;99.90
3921;DHT22;1975;49.356;6.816;2023-04-25T13:06:20;10.50;99.90
3921;DHT22;1975;49.356;6.816;2023-04-25T13:08:45;10.50;99.90
3921;DHT22;1975;49.356;6.816;2023-04-25T13:11:11;10.50;99.90
3921;DHT22;1975;49.356;6.816;2023-04-25T13:13:37;10.50;99.90
3921;DHT22;1975;49.356;6.816;2023-04-25T13:16:02;10.60;99.90
3921;DHT22;1975;49.356;6.816;2023-04-25T13:18:29;10.90;99.90
3921;DHT22;1975;49.356;6.816;2023-04-25T13:20:55;11.00;99.90
3921;DHT22;1975;49.356;6.816;2023-04-25T13:23:21;10.90;99.90
3921;DHT22;1975;49.356;6.816;2023-04-25T13:25:46;10.80;99.90
3921;DHT22;1975;49.356;6.816;2023-04-25T13:28:12;10.70;99.90
3921;DHT22;1975;49.356;6.816;2023-04-25T13:30:38;10.60;99.90
3921;DHT22;1975;49.356;6.816;2023-04-25T13:33:03;10.60;99.90
3921;DHT22;1975;49.356;6.816;2023-04-25T13:35:29;10.70;99.90
3921;DHT22;1975;49.356;6.816;2023-04-25T13:37:55;10.70;99.90
3921;DHT22;1975;49.356;6.816;2023-04-25T13:40:20;10.80;99.90
3921;DHT22;1975;49.356;6.816;2023-04-25T13:42:46;10.90;99.90
3921;DHT22;1975;49.356;6.816;2023-04-25T13:45:12;10.90;99.90
3921;DHT22;1975;49.356;6.816;2023-04-25T13:47:37;10.90;99.90
3921;DHT22;1975;49.356;6.816;2023-04-25T13:50:03;10.90;99.90
3921;DHT22;1975;49.356;6.816;2023-04-25T13:52:29;10.90;99.90
3921;DHT22;1975;49.356;6.816;2023-04-25T13:54:54;10.90;99.90
3921;DHT22;1975;49.356;6.816;2023-04-25T13:57:20;10.90;99.90
3921;DHT22;1975;49.356;6.816;2023-04-25T13:59:45;10.90;99.90
3921;DHT22;1975;49.356;6.816;2023-04-25T14:02:12;10.90;99.90
3921;DHT22;1975;49.356;6.816;2023-04-25T14:04:37;10.90;99.90
3921;DHT22;1975;49.356;6.816;2023-04-25T14:07:03;10.90;99.90
3921;DHT22;1975;49.356;6.816;2023-04-25T14:09:28;10.90;99.90
3921;DHT22;1975;49.356;6.816;2023-04-25T14:11:54;10.90;99.90
3921;DHT22;1975;49.356;6.816;2023-04-25T14:14:23;11.00;99.90
3921;DHT22;1975;49.356;6.816;2023-04-25T14:16:49;11.00;99.90
3921;DHT22;1975;49.356;6.816;2023-04-25T14:19:15;11.00;99.90
3921;DHT22;1975;49.356;6.816;2023-04-25T14:21:41;11.00;99.90
3921;DHT22;1975;49.356;6.816;2023-04-25T14:24:07;10.80;99.90
3921;DHT22;1975;49.356;6.816;2023-04-25T14:26:33;10.80;99.90
3921;DHT22;1975;49.356;6.816;2023-04-25T14:28:58;10.70;99.90
3921;DHT22;1975;49.356;6.816;2023-04-25T14:31:24;10.70;99.90
3921;DHT22;1975;49.356;6.816;2023-04-25T14:33:49;10.70;99.90
3921;DHT22;1975;49.356;6.816;2023-04-25T14:36:15;10.90;99.90
3921;DHT22;1975;49.356;6.816;2023-04-25T14:38:41;11.10;99.90
3921;DHT22;1975;49.356;6.816;2023-04-25T14:41:06;11.20;99.90
3921;DHT22;1975;49.356;6.816;2023-04-25T14:43:31;11.30;99.90
3921;DHT22;1975;49.356;6.816;2023-04-25T14:45:57;11.30;99.90
3921;DHT22;1975;49.356;6.816;2023-04-25T14:48:22;11.20;99.90
3921;DHT22;1975;49.356;6.816;2023-04-25T14:50:48;11.20;99.90
3921;DHT22;1975;49.356;6.816;2023-04-25T14:53:14;11.10;99.90
3921;DHT22;1975;49.356;6.816;2023-04-25T14:55:40;11.10;99.90
3921;DHT22;1975;49.356;6.816;2023-04-25T14:58:05;11.00;99.90
3921;DHT22;1975;49.356;6.816;2023-04-25T15:00:32;11.00;99.90
3921;DHT22;1975;49.356;6.816;2023-04-25T15:02:58;10.80;99.90
3921;DHT22;1975;49.356;6.816;2023-04-25T15:05:24;10.80;99.90
3921;DHT22;1975;49.356;6.816;2023-04-25T15:07:49;10.80;99.90
3921;DHT22;1975;49.356;6.816;2023-04-25T15:10:16;10.90;99.90
3921;DHT22;1975;49.356;6.816;2023-04-25T15:12:42;10.90;99.90
3921;DHT22;1975;49.356;6.816;2023-04-25T15:15:08;10.90;99.90
3921;DHT22;1975;49.356;6.816;2023-04-25T15:17:45;10.90;99.90
3921;DHT22;1975;49.356;6.816;2023-04-25T15:20:12;10.90;99.90
3921;DHT22;1975;49.356;6.816;2023-04-25T15:22:38;10.90;99.90
3921;DHT22;1975;49.356;6.816;2023-04-25T15:25:04;10.90;99.90
3921;DHT22;1975;49.356;6.816;2023-04-25T15:27:31;10.90;99.90
3921;DHT22;1975;49.356;6.816;2023-04-25T15:29:57;10.80;99.90
3921;DHT22;1975;49.356;6.816;2023-04-25T15:32:22;10.80;99.90
3921;DHT22;1975;49.356;6.816;2023-04-25T15:34:48;10.80;99.90
3921;DHT22;1975;49.356;6.816;2023-04-25T15:37:13;10.90;99.90
3921;DHT22;1975;49.356;6.816;2023-04-25T15:39:39;11.10;99.90
3921;DHT22;1975;49.356;6.816;2023-04-25T15:42:04;11.10;99.90
3921;DHT22;1975;49.356;6.816;2023-04-25T15:44:30;11.20;99.90
3921;DHT22;1975;49.356;6.816;2023-04-25T15:46:55;11.50;99.90
3921;DHT22;1975;49.356;6.816;2023-04-25T15:49:21;11.60;99.90
3921;DHT22;1975;49.356;6.816;2023-04-25T15:51:47;11.50;99.90
3921;DHT22;1975;49.356;6.816;2023-04-25T15:54:12;11.30;99.90
3921;DHT22;1975;49.356;6.816;2023-04-25T15:56:38;11.10;99.90
3921;DHT22;1975;49.356;6.816;2023-04-25T15:59:03;11.10;99.90
3921;DHT22;1975;49.356;6.816;2023-04-25T16:01:29;11.00;99.90
3921;DHT22;1975;49.356;6.816;2023-04-25T16:03:55;10.90;99.90